createdAt,value
2018-09-06T00:01:46.480Z,14.47
2018-09-06T00:04:15.257Z,14.43
2018-09-06T00:06:43.935Z,13.63
2018-09-06T00:09:12.566Z,14.07
2018-09-06T00:11:41.507Z,14.50
2018-09-06T00:14:10.300Z,15.37
2018-09-06T00:16:38.991Z,15.30
2018-09-06T00:19:07.667Z,14.83
2018-09-06T00:21:36.380Z,15.47
2018-09-06T00:24:05.658Z,15.70
2018-09-06T00:26:34.438Z,15.60
2018-09-06T00:29:03.349Z,15.27
2018-09-06T00:31:32.128Z,14.20
2018-09-06T00:34:00.981Z,14.97
2018-09-06T00:36:29.600Z,16.00
2018-09-06T00:38:58.500Z,15.23
2018-09-06T00:41:27.121Z,15.50
2018-09-06T00:43:55.905Z,15.17
2018-09-06T00:46:24.648Z,15.30
2018-09-06T00:48:53.328Z,15.00
2018-09-06T00:51:22.020Z,14.37
2018-09-06T00:53:50.917Z,15.60
2018-09-06T00:56:19.596Z,15.90
2018-09-06T00:58:48.298Z,16.73
2018-09-06T01:01:17.119Z,16.60
2018-09-06T01:03:45.910Z,16.00
2018-09-06T01:06:14.651Z,16.47
2018-09-06T01:08:43.435Z,16.93
2018-09-06T01:11:12.165Z,16.67
2018-09-06T01:13:41.088Z,16.83
2018-09-06T01:16:10.575Z,15.67
2018-09-06T01:18:39.359Z,16.40
2018-09-06T01:21:08.090Z,15.37
2018-09-06T01:23:37.387Z,16.47
2018-09-06T01:26:06.127Z,16.13
2018-09-06T01:28:35.077Z,16.77
2018-09-06T01:31:03.868Z,17.00
2018-09-06T01:33:33.422Z,17.03
2018-09-06T01:36:07.774Z,17.03
2018-09-06T01:38:36.569Z,17.07
2018-09-06T01:41:05.407Z,17.20
2018-09-06T01:43:34.359Z,17.50
2018-09-06T01:46:03.283Z,18.10
2018-09-06T01:48:32.146Z,17.63
2018-09-06T01:51:00.978Z,19.40
2018-09-06T01:53:30.031Z,21.77
2018-09-06T01:55:58.848Z,19.13
2018-09-06T01:58:27.616Z,18.07
2018-09-06T02:00:56.499Z,19.43
2018-09-06T02:03:25.438Z,19.37
2018-09-06T02:05:54.273Z,18.90
2018-09-06T02:08:23.119Z,18.20
2018-09-06T02:10:52.046Z,19.27
2018-09-06T02:13:20.749Z,19.17
2018-09-06T02:15:49.472Z,18.53
2018-09-06T02:18:18.260Z,19.17
2018-09-06T02:20:47.626Z,19.70
2018-09-06T02:23:16.507Z,20.17
2018-09-06T02:25:45.268Z,19.80
2018-09-06T02:28:14.177Z,19.37
2018-09-06T02:30:43.080Z,19.63
2018-09-06T02:33:11.827Z,20.77
2018-09-06T02:35:41.106Z,20.03
2018-09-06T02:38:10.015Z,20.03
2018-09-06T02:40:39.399Z,21.03
2018-09-06T02:43:10.516Z,20.03
2018-09-06T02:45:39.306Z,22.03
2018-09-06T02:48:08.032Z,20.90
2018-09-06T02:50:42.067Z,21.00
2018-09-06T02:53:10.900Z,20.17
2018-09-06T02:55:39.746Z,21.33
2018-09-06T02:58:08.641Z,20.50
2018-09-06T03:00:38.423Z,21.37
2018-09-06T03:03:07.268Z,22.57
2018-09-06T03:05:36.015Z,23.40
2018-09-06T03:08:04.895Z,21.07
2018-09-06T03:10:39.205Z,21.43
2018-09-06T03:13:08.182Z,22.70
2018-09-06T03:15:36.996Z,21.20
2018-09-06T03:18:05.890Z,21.13
2018-09-06T03:20:35.389Z,21.17
2018-09-06T03:23:05.024Z,22.33
2018-09-06T03:25:34.148Z,22.17
2018-09-06T03:28:03.371Z,21.13
2018-09-06T03:30:32.219Z,21.30
2018-09-06T03:33:01.019Z,22.50
2018-09-06T03:35:29.715Z,21.57
2018-09-06T03:37:58.353Z,20.47
2018-09-06T03:40:27.034Z,22.30
2018-09-06T03:42:55.795Z,19.93
2018-09-06T03:45:24.435Z,20.53
2018-09-06T03:47:53.347Z,20.83
2018-09-06T03:50:22.233Z,19.33
2018-09-06T03:52:50.907Z,19.40
2018-09-06T03:55:19.964Z,19.30
2018-09-06T03:57:48.786Z,19.53
2018-09-06T04:00:17.453Z,20.07
2018-09-06T04:02:46.855Z,18.70
2018-09-06T04:05:15.526Z,18.80
2018-09-06T04:07:44.266Z,20.43
2018-09-06T04:10:13.168Z,19.90
2018-09-06T04:12:42.260Z,20.50
2018-09-06T04:15:11.044Z,20.60
2018-09-06T04:17:39.829Z,20.33
2018-09-06T04:20:08.503Z,20.17
2018-09-06T04:22:41.740Z,20.00
2018-09-06T04:25:10.497Z,19.63
2018-09-06T04:27:39.233Z,20.63
2018-09-06T04:30:07.976Z,20.53
2018-09-06T04:32:37.472Z,19.40
2018-09-06T04:35:06.937Z,21.10
2018-09-06T04:37:35.879Z,19.87
2018-09-06T04:40:04.724Z,20.03
2018-09-06T04:42:33.670Z,19.57
2018-09-06T04:45:02.432Z,19.90
2018-09-06T04:47:31.289Z,23.23
2018-09-06T04:50:00.179Z,23.13
2018-09-06T04:52:28.920Z,21.20
2018-09-06T04:54:57.707Z,20.27
2018-09-06T04:57:26.894Z,19.23
2018-09-06T04:59:55.694Z,19.23
2018-09-06T05:02:24.427Z,19.13
2018-09-06T05:04:53.623Z,19.00
2018-09-06T05:07:22.510Z,18.20
2018-09-06T05:09:51.411Z,18.97
2018-09-06T05:12:20.320Z,17.90
2018-09-06T05:14:49.240Z,19.17
2018-09-06T05:17:18.029Z,18.70
2018-09-06T05:19:46.684Z,19.40
2018-09-06T05:22:15.917Z,18.53
2018-09-06T05:24:44.774Z,18.80
2018-09-06T05:27:13.596Z,18.40
2018-09-06T05:29:42.379Z,18.83
2018-09-06T05:32:11.027Z,18.20
2018-09-06T05:34:39.806Z,18.53
2018-09-06T05:37:08.602Z,18.17
2018-09-06T05:39:37.271Z,17.40
2018-09-06T05:42:06.075Z,18.63
2018-09-06T05:44:34.691Z,17.83
2018-09-06T05:47:03.340Z,18.43
2018-09-06T05:49:31.951Z,18.53
2018-09-06T05:52:00.658Z,17.50
2018-09-06T05:54:29.338Z,18.00
2018-09-06T05:56:58.021Z,18.47
2018-09-06T05:59:26.718Z,18.50
2018-09-06T06:01:55.403Z,18.60
2018-09-06T06:04:24.007Z,18.95
2018-09-06T06:06:52.779Z,19.37
2018-09-06T06:09:21.461Z,18.00
2018-09-06T06:11:50.301Z,17.02
2018-09-06T06:14:19.132Z,21.50
2018-09-06T06:16:47.833Z,17.83
2018-09-06T06:19:16.721Z,18.80
2018-09-06T06:21:46.281Z,17.50
2018-09-06T06:24:15.238Z,19.13
2018-09-06T06:26:43.974Z,18.97
2018-09-06T06:29:12.796Z,18.50
2018-09-06T06:31:41.663Z,18.93
2018-09-06T06:34:10.415Z,18.87
2018-09-06T06:36:39.380Z,17.93
2018-09-06T06:39:10.339Z,18.00
2018-09-06T06:41:39.306Z,17.67
2018-09-06T06:44:08.083Z,17.32
2018-09-06T06:46:36.877Z,17.70
2018-09-06T06:49:05.615Z,18.05
2018-09-06T06:51:34.451Z,16.70
2018-09-06T06:54:03.360Z,18.35
2018-09-06T06:56:32.079Z,18.67
2018-09-06T06:59:00.919Z,18.07
2018-09-06T07:01:29.805Z,26.40
2018-09-06T07:03:58.564Z,17.33
2018-09-06T07:06:27.264Z,17.10
2018-09-06T07:08:56.184Z,17.93
2018-09-06T07:11:24.919Z,16.43
2018-09-06T07:13:53.658Z,16.23
2018-09-06T07:16:22.467Z,16.93
2018-09-06T07:18:51.268Z,16.20
2018-09-06T07:21:20.097Z,16.70
2018-09-06T07:23:48.857Z,17.17
2018-09-06T07:26:17.560Z,16.63
2018-09-06T07:28:46.292Z,15.43
2018-09-06T07:31:15.110Z,15.60
2018-09-06T07:33:44.002Z,16.00
2018-09-06T07:36:12.908Z,15.70
2018-09-06T07:38:41.649Z,16.07
2018-09-06T07:41:10.475Z,15.80
2018-09-06T07:43:39.277Z,15.18
2018-09-06T07:46:08.039Z,15.18
2018-09-06T07:48:36.953Z,16.20
2018-09-06T07:51:06.054Z,15.73
2018-09-06T07:53:34.982Z,16.83
2018-09-06T07:56:03.782Z,15.58
2018-09-06T07:58:32.642Z,13.62
2018-09-06T08:01:01.560Z,13.50
2018-09-06T08:03:30.429Z,14.13
2018-09-06T08:05:59.334Z,13.88
2018-09-06T08:08:28.388Z,14.58
2018-09-06T08:10:57.278Z,15.30
2018-09-06T08:13:26.071Z,14.07
2018-09-06T08:15:54.859Z,14.78
2018-09-06T08:18:23.629Z,12.18
2018-09-06T08:20:52.360Z,12.75
2018-09-06T08:23:21.051Z,12.53
2018-09-06T08:25:49.703Z,13.65
2018-09-06T08:28:18.382Z,14.38
2018-09-06T08:30:47.459Z,13.08
2018-09-06T08:33:16.291Z,12.53
2018-09-06T08:35:45.010Z,12.25
2018-09-06T08:38:13.684Z,11.22
2018-09-06T08:40:42.373Z,10.72
2018-09-06T08:43:11.274Z,11.55
2018-09-06T08:45:40.163Z,11.53
2018-09-06T08:48:09.044Z,11.15
2018-09-06T08:50:38.560Z,10.80
2018-09-06T08:53:07.559Z,11.88
2018-09-06T08:55:36.442Z,11.08
2018-09-06T08:58:05.237Z,10.63
2018-09-06T09:00:37.074Z,11.85
2018-09-06T09:03:06.481Z,14.15
2018-09-06T09:05:35.362Z,13.18
2018-09-06T09:08:04.166Z,13.58
2018-09-06T09:10:33.106Z,11.25
2018-09-06T09:13:01.952Z,11.70
2018-09-06T09:15:30.599Z,11.40
2018-09-06T09:17:59.318Z,11.10
2018-09-06T09:20:28.234Z,11.73
2018-09-06T09:22:57.162Z,10.40
2018-09-06T09:25:25.954Z,11.63
2018-09-06T09:27:54.877Z,11.70
2018-09-06T09:30:23.720Z,12.03
2018-09-06T09:32:52.473Z,11.78
2018-09-06T09:35:21.145Z,10.93
2018-09-06T09:37:49.850Z,10.58
2018-09-06T09:40:18.616Z,10.60
2018-09-06T09:42:47.375Z,10.32
2018-09-06T09:45:16.258Z,9.95
2018-09-06T09:47:45.096Z,11.18
2018-09-06T09:52:43.210Z,10.25
2018-09-06T09:55:11.928Z,11.25
2018-09-06T09:57:40.666Z,11.70
2018-09-06T10:00:09.474Z,11.12
2018-09-06T10:02:43.435Z,10.55
2018-09-06T10:05:17.309Z,11.35
2018-09-06T10:07:51.197Z,10.93
2018-09-06T10:10:19.858Z,11.35
2018-09-06T10:12:48.624Z,10.90
2018-09-06T10:15:17.319Z,10.95
2018-09-06T10:17:45.983Z,11.45
2018-09-06T10:20:14.668Z,11.18
2018-09-06T10:22:43.446Z,11.18
2018-09-06T10:25:12.157Z,11.30
2018-09-06T10:27:40.983Z,11.33
2018-09-06T10:30:09.759Z,10.18
2018-09-06T10:32:38.520Z,10.55
2018-09-06T10:35:07.407Z,10.75
2018-09-06T10:37:36.077Z,12.07
2018-09-06T10:40:04.889Z,12.47
2018-09-06T10:42:33.610Z,11.33
2018-09-06T10:45:02.319Z,11.30
2018-09-06T10:47:30.976Z,11.60
2018-09-06T10:49:59.620Z,11.88
2018-09-06T10:52:28.330Z,10.98
2018-09-06T10:54:56.985Z,11.00
2018-09-06T10:57:25.735Z,11.22
2018-09-06T10:59:54.484Z,10.75
2018-09-06T11:02:24.105Z,12.20
2018-09-06T11:04:52.851Z,10.65
2018-09-06T11:07:21.649Z,15.80
2018-09-06T11:09:50.312Z,11.18
2018-09-06T11:12:18.980Z,10.80
2018-09-06T11:14:47.680Z,13.58
2018-09-06T11:17:16.384Z,10.75
2018-09-06T11:19:45.482Z,11.85
2018-09-06T11:22:14.336Z,10.45
2018-09-06T11:24:42.834Z,11.18
2018-09-06T11:27:11.624Z,10.18
2018-09-06T11:29:40.542Z,10.48
2018-09-06T11:32:09.239Z,10.80
2018-09-06T11:34:37.975Z,74.75
2018-09-06T11:37:06.926Z,11.63
2018-09-06T11:39:35.639Z,10.90
2018-09-06T11:42:04.749Z,11.03
2018-09-06T11:44:33.559Z,11.18
2018-09-06T11:47:02.336Z,10.55
2018-09-06T11:49:31.110Z,12.40
2018-09-06T11:52:00.886Z,10.98
2018-09-06T11:54:29.592Z,11.00
2018-09-06T11:56:58.376Z,10.82
2018-09-06T11:59:27.226Z,11.80
2018-09-06T12:01:55.936Z,11.30
2018-09-06T12:04:24.997Z,10.48
2018-09-06T12:06:53.883Z,10.98
2018-09-06T12:09:23.148Z,10.72
2018-09-06T12:11:52.117Z,10.97
2018-09-06T12:14:20.846Z,11.70
2018-09-06T12:16:49.634Z,11.13
2018-09-06T12:19:18.475Z,10.77
2018-09-06T12:21:48.129Z,10.97
2018-09-06T12:24:17.152Z,10.80
2018-09-06T12:26:45.994Z,11.27
2018-09-06T12:29:15.070Z,10.67
2018-09-06T12:31:43.807Z,11.70
2018-09-06T12:34:12.654Z,11.60
2018-09-06T12:36:41.659Z,10.43
2018-09-06T12:39:11.075Z,11.30
2018-09-06T12:41:40.448Z,11.20
2018-09-06T12:44:09.322Z,10.80
2018-09-06T12:46:38.093Z,11.17
2018-09-06T12:49:06.855Z,11.27
2018-09-06T12:51:35.639Z,10.80
2018-09-06T12:54:04.483Z,10.80
2018-09-06T12:56:33.272Z,12.13
2018-09-06T12:59:02.049Z,11.40
2018-09-06T13:01:30.751Z,11.63
2018-09-06T13:03:59.434Z,11.80
2018-09-06T13:06:28.103Z,12.33
2018-09-06T13:08:57.002Z,11.10
2018-09-06T13:11:25.785Z,11.10
2018-09-06T13:13:54.826Z,11.50
2018-09-06T13:16:23.524Z,10.57
2018-09-06T13:18:52.336Z,10.33
2018-09-06T13:21:21.045Z,11.00
2018-09-06T13:23:50.024Z,10.80
2018-09-06T13:26:19.046Z,10.30
2018-09-06T13:28:47.779Z,8.90
2018-09-06T13:31:16.856Z,8.70
2018-09-06T13:33:45.699Z,8.53
2018-09-06T13:36:14.391Z,8.87
2018-09-06T13:38:43.991Z,7.83
2018-09-06T13:41:13.291Z,7.43
2018-09-06T13:43:42.360Z,6.90
2018-09-06T13:46:11.360Z,6.50
2018-09-06T13:48:40.259Z,6.20
2018-09-06T13:51:09.279Z,7.57
2018-09-06T13:53:38.005Z,7.47
2018-09-06T13:56:07.115Z,7.27
2018-09-06T13:58:35.865Z,8.63
2018-09-06T14:01:04.607Z,8.93
2018-09-06T14:03:33.606Z,13.27
2018-09-06T14:06:03.559Z,8.03
2018-09-06T14:08:32.333Z,8.17
2018-09-06T14:11:01.544Z,9.43
2018-09-06T14:13:30.265Z,7.53
2018-09-06T14:15:59.031Z,7.90
2018-09-06T14:18:27.805Z,7.80
2018-09-06T14:20:56.488Z,8.17
2018-09-06T14:23:25.330Z,8.23
2018-09-06T14:25:54.358Z,7.73
2018-09-06T14:28:23.376Z,7.20
2018-09-06T14:30:52.097Z,7.57
2018-09-06T14:33:20.791Z,8.00
2018-09-06T14:35:50.282Z,8.43
2018-09-06T14:38:19.003Z,8.07
2018-09-06T14:40:47.601Z,8.30
2018-09-06T14:43:16.267Z,9.00
2018-09-06T14:45:44.942Z,9.07
2018-09-06T14:48:13.572Z,8.90
2018-09-06T14:50:42.205Z,8.70
2018-09-06T14:53:10.854Z,8.27
2018-09-06T14:55:39.548Z,9.07
2018-09-06T14:58:08.226Z,8.97
2018-09-06T15:00:36.926Z,9.33
2018-09-06T15:03:05.610Z,9.30
2018-09-06T15:05:34.405Z,9.83
2018-09-06T15:08:03.128Z,9.97
2018-09-06T15:10:31.719Z,10.27
2018-09-06T15:13:00.373Z,10.07
2018-09-06T15:15:29.065Z,11.57
2018-09-06T15:17:57.746Z,10.60
2018-09-06T15:20:26.421Z,10.33
2018-09-06T15:22:55.114Z,9.27
2018-09-06T15:25:23.823Z,11.23
2018-09-06T15:27:52.490Z,14.53
2018-09-06T15:30:21.271Z,13.17
2018-09-06T15:32:49.957Z,10.33
2018-09-06T15:35:18.595Z,10.27
2018-09-06T15:37:47.216Z,12.57
2018-09-06T15:40:15.923Z,11.60
2018-09-06T15:42:44.577Z,11.20
2018-09-06T15:45:13.205Z,12.93
2018-09-06T15:47:41.840Z,12.70
2018-09-06T15:50:10.498Z,12.53
2018-09-06T15:52:39.173Z,10.67
2018-09-06T15:55:07.819Z,12.00
2018-09-06T15:57:36.452Z,11.10
2018-09-06T16:00:06.631Z,12.73
2018-09-06T16:02:35.374Z,13.73
2018-09-06T16:05:04.185Z,13.23
2018-09-06T16:07:32.869Z,13.30
2018-09-06T16:10:01.582Z,13.30
2018-09-06T16:12:30.266Z,14.37
2018-09-06T16:14:58.973Z,13.73
2018-09-06T16:17:27.620Z,14.00
2018-09-06T16:19:56.271Z,14.10
2018-09-06T16:22:25.069Z,14.30
2018-09-06T16:24:53.794Z,13.27
2018-09-06T16:27:22.475Z,13.93
2018-09-06T16:29:51.337Z,15.63
2018-09-06T16:32:20.082Z,14.23
2018-09-06T16:34:48.828Z,15.63
2018-09-06T16:37:17.588Z,16.23
2018-09-06T16:39:46.278Z,17.20
2018-09-06T16:42:14.938Z,17.50
2018-09-06T16:44:43.646Z,15.93
2018-09-06T16:47:12.297Z,16.10
2018-09-06T16:49:40.987Z,15.67
2018-09-06T16:52:09.714Z,16.77
2018-09-06T16:54:39.352Z,15.80
2018-09-06T16:57:07.993Z,17.20
2018-09-06T16:59:36.678Z,18.03
2018-09-06T17:02:05.364Z,17.07
2018-09-06T17:04:34.139Z,19.43
2018-09-06T17:07:02.891Z,15.80
2018-09-06T17:09:31.550Z,16.77
2018-09-06T17:12:00.207Z,17.33
2018-09-06T17:14:28.894Z,16.07
2018-09-06T17:16:57.599Z,16.40
2018-09-06T17:19:26.375Z,16.70
2018-09-06T17:21:55.079Z,16.67
2018-09-06T17:24:23.737Z,18.13
2018-09-06T17:26:52.425Z,15.87
2018-09-06T17:29:21.089Z,16.20
2018-09-06T17:31:49.739Z,16.40
2018-09-06T17:34:18.427Z,17.00
2018-09-06T17:36:47.130Z,16.37
2018-09-06T17:39:15.908Z,17.77
2018-09-06T17:41:44.582Z,18.40
2018-09-06T17:44:13.214Z,17.10
2018-09-06T17:46:41.930Z,16.97
2018-09-06T17:49:10.769Z,17.17
2018-09-06T17:51:39.549Z,18.17
2018-09-06T17:54:08.308Z,19.10
2018-09-06T17:56:37.090Z,18.13
2018-09-06T17:59:05.919Z,18.60
2018-09-06T18:01:40.074Z,19.23
2018-09-06T18:04:08.996Z,19.73
2018-09-06T18:06:37.775Z,19.60
2018-09-06T18:09:10.823Z,18.73
2018-09-06T18:11:40.012Z,19.83
2018-09-06T18:14:08.784Z,19.67
2018-09-06T18:16:37.574Z,19.37
2018-09-06T18:19:06.314Z,18.27
2018-09-06T18:21:35.028Z,18.97
2018-09-06T18:24:03.853Z,19.00
2018-09-06T18:26:32.570Z,19.10
2018-09-06T18:29:01.315Z,19.13
2018-09-06T18:31:30.185Z,18.97
2018-09-06T18:33:58.935Z,18.50
2018-09-06T18:36:27.748Z,21.10
2018-09-06T18:38:56.559Z,27.37
2018-09-06T18:41:25.220Z,25.97
2018-09-06T18:43:53.858Z,18.87
2018-09-06T18:46:22.596Z,18.73
2018-09-06T18:48:51.258Z,19.93
2018-09-06T18:51:20.286Z,19.13
2018-09-06T18:53:51.949Z,18.13
2018-09-06T18:56:20.915Z,18.30
2018-09-06T18:58:49.614Z,18.90
2018-09-06T19:01:19.201Z,17.40
2018-09-06T19:03:47.878Z,17.83
2018-09-06T19:06:16.673Z,17.87
2018-09-06T19:08:45.354Z,17.63
2018-09-06T19:11:14.116Z,18.07
2018-09-06T19:13:42.779Z,18.40
2018-09-06T19:16:11.501Z,17.43
2018-09-06T19:18:40.306Z,17.87
2018-09-06T19:21:08.965Z,17.73
2018-09-06T19:23:37.776Z,18.00
2018-09-06T19:26:06.497Z,17.20
2018-09-06T19:28:35.174Z,18.87
2018-09-06T19:31:03.896Z,18.20
2018-09-06T19:33:32.584Z,18.53
2018-09-06T19:36:01.268Z,18.83
2018-09-06T19:38:29.931Z,18.37
2018-09-06T19:40:58.607Z,18.07
2018-09-06T19:43:27.294Z,17.57
2018-09-06T19:45:55.927Z,18.07
2018-09-06T19:48:24.574Z,18.57
2018-09-06T19:50:53.238Z,18.43
2018-09-06T19:53:21.910Z,18.87
2018-09-06T19:55:50.596Z,18.17
2018-09-06T19:58:19.242Z,18.13
2018-09-06T20:00:47.880Z,17.80
2018-09-06T20:03:16.538Z,16.97
2018-09-06T20:05:45.190Z,18.60
2018-09-06T20:08:13.942Z,17.23
2018-09-06T20:10:42.692Z,16.93
2018-09-06T20:13:11.409Z,17.40
2018-09-06T20:15:40.150Z,16.60
2018-09-06T20:18:08.865Z,17.47
2018-09-06T20:20:37.563Z,18.43
2018-09-06T20:23:06.313Z,18.17
2018-09-06T20:25:34.982Z,17.10
2018-09-06T20:28:03.817Z,17.77
2018-09-06T20:30:32.476Z,17.27
2018-09-06T20:33:01.219Z,17.43
2018-09-06T20:35:29.907Z,18.47
2018-09-06T20:37:58.653Z,17.43
2018-09-06T20:40:27.300Z,18.00
2018-09-06T20:42:55.987Z,18.37
2018-09-06T20:45:24.763Z,17.90
2018-09-06T20:47:53.719Z,17.83
2018-09-06T20:50:22.740Z,17.63
2018-09-06T20:52:51.558Z,17.93
2018-09-06T20:55:20.318Z,17.77
2018-09-06T20:57:49.012Z,20.13
2018-09-06T21:00:17.675Z,17.40
2018-09-06T21:02:46.379Z,26.17
2018-09-06T21:05:15.028Z,17.17
2018-09-06T21:07:43.810Z,16.70
2018-09-06T21:10:12.469Z,16.10
2018-09-06T21:12:41.122Z,16.70
2018-09-06T21:15:09.808Z,16.87
2018-09-06T21:17:38.452Z,17.13
2018-09-06T21:20:07.141Z,18.77
2018-09-06T21:22:35.772Z,17.53
2018-09-06T21:25:04.509Z,17.33
2018-09-06T21:27:33.286Z,16.77
2018-09-06T21:30:02.072Z,18.00
2018-09-06T21:32:30.663Z,18.17
2018-09-06T21:34:59.370Z,18.90
2018-09-06T21:37:28.018Z,18.93
2018-09-06T21:39:56.861Z,18.10
2018-09-06T21:42:25.555Z,19.23
2018-09-06T21:44:54.212Z,18.80
2018-09-06T21:47:22.927Z,18.53
2018-09-06T21:49:51.631Z,19.73
2018-09-06T21:52:20.290Z,20.30
2018-09-06T21:54:48.964Z,20.37
2018-09-06T21:57:17.642Z,20.70
2018-09-06T21:59:46.307Z,20.83
2018-09-06T22:02:20.144Z,21.47
2018-09-06T22:04:48.790Z,20.77
2018-09-06T22:07:17.433Z,20.20
2018-09-06T22:09:46.217Z,19.73
2018-09-06T22:12:18.651Z,20.37
2018-09-06T22:14:49.179Z,20.43
2018-09-06T22:17:17.949Z,20.10
2018-09-06T22:19:47.254Z,21.53
2018-09-06T22:22:16.063Z,21.03
2018-09-06T22:24:44.842Z,20.20
2018-09-06T22:27:13.533Z,20.93
2018-09-06T22:29:42.204Z,19.53
2018-09-06T22:32:10.901Z,19.73
2018-09-06T22:34:39.643Z,19.47
2018-09-06T22:37:08.569Z,19.33
2018-09-06T22:39:37.455Z,19.80
2018-09-06T22:42:06.212Z,20.43
2018-09-06T22:44:34.846Z,20.20
2018-09-06T22:47:03.559Z,19.10
2018-09-06T22:49:32.228Z,18.43
2018-09-06T22:52:00.915Z,20.40
2018-09-06T22:54:29.594Z,20.73
2018-09-06T22:56:58.308Z,20.20
2018-09-06T22:59:26.955Z,19.83
2018-09-06T23:04:30.186Z,21.03
2018-09-06T23:06:58.886Z,19.57
2018-09-06T23:09:27.643Z,19.87
2018-09-06T23:11:57.056Z,19.97
2018-09-06T23:14:25.767Z,18.87
2018-09-06T23:16:54.447Z,20.57
2018-09-06T23:19:23.100Z,21.30
2018-09-06T23:21:51.727Z,19.63
2018-09-06T23:26:53.416Z,20.20
2018-09-06T23:29:22.165Z,20.10
2018-09-06T23:31:51.192Z,20.27
2018-09-06T23:34:19.865Z,20.97
2018-09-06T23:36:48.504Z,19.13
2018-09-06T23:41:50.905Z,20.27
2018-09-06T23:44:21.634Z,21.10
2018-09-06T23:46:51.234Z,20.03
2018-09-06T23:49:19.972Z,19.80
2018-09-06T23:51:48.622Z,19.33
2018-09-06T23:54:17.354Z,19.87
2018-09-06T23:56:46.100Z,20.77
2018-09-06T23:59:15.695Z,20.40
